createdAt,value
2023-04-01T00:00:39.703Z,75.17
2023-04-01T00:03:08.270Z,75.35
2023-04-01T00:05:36.528Z,75.39
2023-04-01T00:08:04.724Z,75.48
2023-04-01T00:10:32.758Z,75.58
2023-04-01T00:13:02.742Z,75.55
2023-04-01T00:15:31.155Z,75.33
2023-04-01T00:18:02.044Z,75.55
2023-04-01T00:20:30.312Z,75.51
2023-04-01T00:22:58.592Z,75.47
2023-04-01T00:25:26.952Z,75.92
2023-04-01T00:27:55.099Z,75.92
2023-04-01T00:30:23.231Z,75.92
2023-04-01T00:32:53.634Z,75.44
2023-04-01T00:35:23.478Z,75.69
2023-04-01T00:37:51.996Z,76.12
2023-04-01T00:40:28.158Z,76.12
2023-04-01T00:42:56.626Z,76.47
2023-04-01T00:45:30.560Z,76.79
2023-04-01T00:48:01.215Z,76.67
2023-04-01T00:50:31.695Z,76.74
2023-04-01T00:53:00.718Z,76.47
2023-04-01T00:55:30.110Z,76.59
2023-04-01T00:57:59.392Z,76.50
2023-04-01T01:00:27.787Z,76.37
2023-04-01T01:02:55.933Z,76.50
2023-04-01T01:05:29.381Z,76.33
2023-04-01T01:08:05.416Z,76.76
2023-04-01T01:10:35.019Z,76.75
2023-04-01T01:13:07.435Z,76.27
2023-04-01T01:15:38.582Z,76.59
2023-04-01T01:18:11.645Z,77.26
2023-04-01T01:20:50.691Z,77.08
2023-04-01T01:23:45.838Z,76.89
2023-04-01T01:26:27.511Z,76.79
2023-04-01T01:29:03.987Z,76.80
2023-04-01T01:31:36.373Z,76.82
2023-04-01T01:34:12.797Z,77.26
2023-04-01T01:36:43.681Z,77.34
2023-04-01T01:39:12.230Z,77.25
2023-04-01T01:41:42.172Z,77.43
2023-04-01T01:44:12.775Z,77.45
2023-04-01T01:46:42.130Z,78.10
2023-04-01T01:49:11.652Z,78.18
2023-04-01T01:51:40.300Z,78.15
2023-04-01T01:54:15.616Z,78.09
2023-04-01T01:56:45.581Z,78.26
2023-04-01T01:59:14.942Z,78.15
2023-04-01T02:01:45.405Z,78.22
2023-04-01T02:04:16.262Z,78.10
2023-04-01T02:06:48.857Z,78.42
2023-04-01T02:09:19.153Z,78.45
2023-04-01T02:11:49.853Z,78.17
2023-04-01T02:14:19.856Z,78.65
2023-04-01T02:16:52.098Z,78.46
2023-04-01T02:19:23.773Z,78.52
2023-04-01T02:21:56.299Z,78.60
2023-04-01T02:24:28.393Z,79.14
2023-04-01T02:26:56.416Z,79.09
2023-04-01T02:29:26.147Z,78.97
2023-04-01T02:31:55.854Z,78.89
2023-04-01T02:34:25.239Z,79.07
2023-04-01T02:36:54.454Z,79.17
2023-04-01T02:39:22.732Z,78.86
2023-04-01T02:41:52.099Z,78.94
2023-04-01T02:44:20.603Z,79.01
2023-04-01T02:46:48.795Z,79.10
2023-04-01T02:49:16.875Z,79.02
2023-04-01T02:51:44.916Z,78.98
2023-04-01T02:54:13.173Z,79.28
2023-04-01T02:56:41.706Z,79.06
2023-04-01T02:59:11.233Z,79.40
2023-04-01T03:01:39.364Z,79.02
2023-04-01T03:04:07.604Z,79.21
2023-04-01T03:06:35.860Z,79.18
2023-04-01T03:09:04.482Z,79.54
2023-04-01T03:11:32.549Z,78.92
2023-04-01T03:14:00.617Z,79.30
2023-04-01T03:16:30.627Z,79.09
2023-04-01T03:19:00.816Z,78.69
2023-04-01T03:21:29.178Z,78.03
2023-04-01T03:23:57.349Z,79.14
2023-04-01T03:26:25.432Z,79.13
2023-04-01T03:28:53.525Z,78.93
2023-04-01T03:31:23.643Z,79.56
2023-04-01T03:33:56.966Z,79.17
2023-04-01T03:36:25.189Z,79.69
2023-04-01T03:38:53.401Z,79.53
2023-04-01T03:41:28.867Z,79.06
2023-04-01T03:43:57.005Z,79.06
2023-04-01T03:46:25.299Z,79.35
2023-04-01T03:48:53.548Z,79.20
2023-04-01T03:51:22.992Z,79.61
2023-04-01T03:53:51.388Z,79.59
2023-04-01T03:56:19.460Z,79.29
2023-04-01T03:58:47.758Z,79.59
2023-04-01T04:01:16.524Z,79.08
2023-04-01T04:03:45.396Z,80.05
2023-04-01T04:06:14.763Z,79.02
2023-04-01T04:08:44.376Z,79.19
2023-04-01T04:11:13.307Z,79.02
2023-04-01T04:13:43.915Z,79.32
2023-04-01T04:16:13.717Z,78.66
2023-04-01T04:18:46.768Z,78.97
2023-04-01T04:21:15.010Z,78.96
2023-04-01T04:23:45.218Z,79.15
2023-04-01T04:26:16.781Z,78.42
2023-04-01T04:28:49.789Z,78.38
2023-04-01T04:31:20.830Z,78.02
2023-04-01T04:33:49.055Z,78.47
2023-04-01T04:36:18.110Z,77.97
2023-04-01T04:38:48.165Z,78.46
2023-04-01T04:41:17.940Z,78.23
2023-04-01T04:43:53.753Z,78.46
2023-04-01T04:46:22.351Z,78.35
2023-04-01T04:48:54.675Z,78.58
2023-04-01T04:51:23.386Z,78.30
2023-04-01T04:53:53.403Z,78.50
2023-04-01T04:56:29.132Z,78.75
2023-04-01T04:59:09.201Z,78.81
2023-04-01T05:01:46.913Z,79.28
2023-04-01T05:04:17.216Z,79.47
2023-04-01T05:06:45.940Z,80.00
2023-04-01T05:09:15.653Z,79.71
2023-04-01T05:11:43.895Z,79.73
2023-04-01T05:14:14.609Z,80.24
2023-04-01T05:16:44.095Z,80.24
2023-04-01T05:19:12.178Z,79.96
2023-04-01T05:21:40.402Z,79.97
2023-04-01T05:24:09.894Z,79.65
2023-04-01T05:26:39.921Z,80.15
2023-04-01T05:29:08.026Z,80.01
2023-04-01T05:31:36.621Z,79.76
2023-04-01T05:34:06.203Z,79.60
2023-04-01T05:36:35.391Z,79.76
2023-04-01T05:39:04.412Z,78.80
2023-04-01T05:41:32.704Z,78.86
2023-04-01T05:44:02.334Z,79.18
2023-04-01T05:46:50.673Z,79.40
2023-04-01T05:49:24.252Z,79.69
2023-04-01T05:51:53.418Z,79.54
2023-04-01T05:54:21.569Z,79.84
2023-04-01T05:56:50.048Z,79.69
2023-04-01T05:59:20.405Z,79.63
2023-04-01T06:01:48.508Z,79.45
2023-04-01T06:04:17.797Z,79.35
2023-04-01T06:06:47.067Z,79.90
2023-04-01T06:09:16.495Z,79.47
2023-04-01T06:12:03.309Z,79.33
2023-04-01T06:14:40.387Z,79.93
2023-04-01T06:17:18.774Z,80.13
2023-04-01T06:19:50.504Z,79.97
2023-04-01T06:22:37.390Z,79.80
2023-04-01T06:25:31.951Z,78.50
2023-04-01T06:28:16.788Z,76.30
2023-04-01T06:30:50.078Z,76.67
2023-04-01T06:33:32.703Z,77.35
2023-04-01T06:36:08.899Z,76.59
2023-04-01T06:38:55.009Z,76.71
2023-04-01T06:41:30.772Z,76.17
2023-04-01T06:44:03.103Z,76.41
2023-04-01T06:46:57.293Z,75.83
2023-04-01T06:49:58.051Z,75.46
2023-04-01T06:52:52.423Z,75.36
2023-04-01T06:55:48.474Z,74.53
2023-04-01T06:58:44.379Z,74.57
2023-04-01T07:01:16.503Z,75.18
2023-04-01T07:03:50.029Z,75.43
2023-04-01T07:06:22.306Z,74.52
2023-04-01T07:08:57.887Z,75.23
2023-04-01T07:11:30.793Z,76.36
2023-04-01T07:14:22.138Z,76.78
2023-04-01T07:16:51.769Z,76.47
2023-04-01T07:19:24.324Z,75.66
2023-04-01T07:22:06.342Z,75.12
2023-04-01T07:24:54.318Z,74.97
2023-04-01T07:27:22.825Z,74.55
2023-04-01T07:29:51.387Z,74.74
2023-04-01T07:32:22.515Z,74.79
2023-04-01T07:35:09.009Z,75.69
2023-04-01T07:37:41.515Z,74.60
2023-04-01T07:40:16.845Z,73.55
2023-04-01T07:42:51.794Z,73.78
2023-04-01T07:45:25.194Z,72.94
2023-04-01T07:48:02.932Z,72.51
2023-04-01T07:50:34.908Z,70.93
2023-04-01T07:53:08.900Z,69.06
2023-04-01T07:55:41.073Z,67.83
2023-04-01T07:58:12.882Z,69.45
2023-04-01T08:00:46.955Z,66.93
2023-04-01T08:03:33.911Z,64.83
2023-04-01T08:06:09.670Z,65.32
2023-04-01T08:08:42.390Z,66.12
2023-04-01T08:11:34.967Z,66.16
2023-04-01T08:14:48.804Z,65.19
2023-04-01T08:17:19.816Z,68.01
2023-04-01T08:19:58.656Z,63.43
2023-04-01T08:22:35.145Z,61.88
2023-04-01T08:25:08.903Z,61.65
2023-04-01T08:27:39.452Z,60.55
2023-04-01T08:30:17.916Z,61.13
2023-04-01T08:32:50.193Z,59.57
2023-04-01T08:35:21.487Z,58.42
2023-04-01T08:37:55.199Z,58.20
2023-04-01T08:40:53.464Z,56.26
2023-04-01T08:43:27.822Z,51.49
2023-04-01T08:46:03.630Z,49.12
2023-04-01T08:48:44.221Z,48.93
2023-04-01T08:51:32.662Z,48.63
2023-04-01T08:54:22.187Z,50.35
2023-04-01T08:56:55.832Z,47.18
2023-04-01T08:59:32.296Z,47.86
2023-04-01T09:02:30.111Z,49.72
2023-04-01T09:05:35.146Z,45.79
2023-04-01T09:08:10.473Z,44.07
2023-04-01T09:10:49.651Z,44.65
2023-04-01T09:14:04.819Z,42.63
2023-04-01T09:16:53.902Z,40.41
2023-04-01T09:19:27.926Z,39.38
2023-04-01T09:22:09.868Z,36.58
2023-04-01T09:24:44.672Z,35.05
2023-04-01T09:27:21.130Z,34.20
2023-04-01T09:30:01.150Z,33.45
2023-04-01T09:32:42.778Z,33.02
2023-04-01T09:35:23.561Z,31.41
2023-04-01T09:38:02.903Z,32.29
2023-04-01T09:40:38.585Z,32.00
2023-04-01T09:43:19.159Z,31.45
2023-04-01T09:45:54.773Z,32.04
2023-04-01T09:48:46.199Z,32.53
2023-04-01T09:51:21.120Z,33.02
2023-04-01T09:53:54.830Z,33.51
2023-04-01T09:56:45.626Z,34.28
2023-04-01T09:59:31.775Z,35.32
2023-04-01T10:02:36.084Z,34.63
2023-04-01T10:05:30.275Z,34.53
2023-04-01T10:08:17.936Z,33.88
2023-04-01T10:10:57.125Z,34.10
2023-04-01T10:13:39.247Z,33.58
2023-04-01T10:16:25.400Z,33.95
2023-04-01T10:19:12.218Z,34.36
2023-04-01T10:21:59.260Z,34.22
2023-04-01T10:24:43.721Z,33.37
2023-04-01T10:27:31.420Z,33.64
2023-04-01T10:30:31.141Z,31.90
2023-04-01T10:33:26.794Z,30.02
2023-04-01T10:36:09.831Z,30.26
2023-04-01T10:38:57.594Z,29.13
2023-04-01T10:41:39.521Z,27.61
2023-04-01T10:44:47.938Z,25.80
2023-04-01T10:47:43.739Z,25.23
2023-04-01T10:50:29.793Z,24.05
2023-04-01T10:53:29.722Z,22.94
2023-04-01T10:56:40.964Z,22.01
2023-04-01T10:59:56.284Z,21.64
2023-04-01T11:03:02.055Z,21.71
2023-04-01T11:06:21.470Z,20.63
2023-04-01T11:09:13.249Z,21.46
2023-04-01T11:11:59.842Z,21.15
2023-04-01T11:14:40.818Z,20.99
2023-04-01T11:17:29.583Z,21.24
2023-04-01T11:20:11.345Z,22.26
2023-04-01T11:22:48.643Z,22.04
2023-04-01T11:25:24.521Z,22.99
2023-04-01T11:28:33.622Z,23.41
2023-04-01T11:31:10.176Z,22.63
2023-04-01T11:33:40.176Z,22.60
2023-04-01T11:36:19.017Z,22.83
2023-04-01T11:38:59.290Z,23.63
2023-04-01T11:41:48.377Z,24.72
2023-04-01T11:44:42.247Z,26.04
2023-04-01T11:47:40.760Z,26.85
2023-04-01T11:50:23.298Z,27.73
2023-04-01T11:53:08.334Z,29.21
2023-04-01T11:55:41.977Z,30.05
2023-04-01T11:58:20.542Z,30.63
2023-04-01T12:01:07.402Z,30.65
2023-04-01T12:03:50.493Z,32.21
2023-04-01T12:06:26.345Z,32.62
2023-04-01T12:08:59.550Z,33.33
2023-04-01T12:11:33.109Z,34.37
2023-04-01T12:14:06.571Z,34.32
2023-04-01T12:16:43.889Z,35.00
2023-04-01T12:19:17.402Z,35.73
2023-04-01T12:21:53.151Z,36.43
2023-04-01T12:24:44.089Z,35.81
2023-04-01T12:27:22.190Z,35.83
2023-04-01T12:29:55.925Z,37.32
2023-04-01T12:32:28.484Z,36.55
2023-04-01T12:35:15.712Z,37.29
2023-04-01T12:37:49.731Z,36.18
2023-04-01T12:40:36.050Z,37.85
2023-04-01T12:43:21.924Z,37.89
2023-04-01T12:45:55.359Z,39.09
2023-04-01T12:48:42.089Z,39.02
2023-04-01T12:51:37.793Z,39.24
2023-04-01T12:54:18.390Z,39.57
2023-04-01T12:56:52.443Z,38.56
2023-04-01T12:59:38.272Z,39.76
2023-04-01T13:02:14.915Z,40.71
2023-04-01T13:04:57.812Z,40.82
2023-04-01T13:07:39.191Z,41.73
2023-04-01T13:10:15.748Z,41.62
2023-04-01T13:12:56.342Z,42.67
2023-04-01T13:15:27.739Z,43.52
2023-04-01T13:17:59.801Z,43.97
2023-04-01T13:20:38.212Z,44.67
2023-04-01T13:23:12.379Z,45.01
2023-04-01T13:25:46.940Z,46.22
2023-04-01T13:28:18.153Z,46.46
2023-04-01T13:30:50.221Z,46.19
2023-04-01T13:33:28.610Z,46.54
2023-04-01T13:36:01.152Z,47.26
2023-04-01T13:38:40.137Z,46.87
2023-04-01T13:41:15.869Z,46.33
2023-04-01T13:43:47.778Z,46.60
2023-04-01T13:46:28.961Z,46.73
2023-04-01T13:49:11.900Z,46.56
2023-04-01T13:51:54.730Z,46.29
2023-04-01T13:54:49.723Z,46.69
2023-04-01T13:57:26.255Z,46.46
2023-04-01T14:00:08.591Z,47.96
2023-04-01T14:02:52.589Z,48.05
2023-04-01T14:05:43.316Z,48.83
2023-04-01T14:08:19.433Z,49.54
2023-04-01T14:10:52.247Z,50.81
2023-04-01T14:13:25.493Z,50.51
2023-04-01T14:16:04.448Z,51.40
2023-04-01T14:18:39.720Z,52.10
2023-04-01T14:21:20.661Z,52.33
2023-04-01T14:23:58.302Z,53.43
2023-04-01T14:26:37.758Z,53.67
2023-04-01T14:29:14.731Z,52.91
2023-04-01T14:31:49.272Z,53.43
2023-04-01T14:34:24.004Z,54.19
2023-04-01T14:36:58.492Z,54.56
2023-04-01T14:39:36.285Z,54.17
2023-04-01T14:42:18.965Z,54.47
2023-04-01T14:44:57.697Z,54.47
2023-04-01T14:47:42.018Z,55.44
2023-04-01T14:50:14.592Z,55.55
2023-04-01T14:52:44.519Z,55.63
2023-04-01T14:55:23.307Z,56.47
2023-04-01T14:58:00.927Z,57.15
2023-04-01T15:00:42.036Z,57.15
2023-04-01T15:03:15.768Z,58.34
2023-04-01T15:05:50.162Z,59.58
2023-04-01T15:08:20.763Z,59.66
2023-04-01T15:11:00.409Z,61.46
2023-04-01T15:13:43.388Z,61.96
2023-04-01T15:16:20.799Z,61.96
2023-04-01T15:18:55.086Z,61.18
2023-04-01T15:21:30.356Z,62.51
2023-04-01T15:24:08.727Z,62.65
2023-04-01T15:26:51.680Z,62.88
2023-04-01T15:29:27.839Z,62.39
2023-04-01T15:32:02.843Z,62.86
2023-04-01T15:34:34.463Z,62.74
2023-04-01T15:37:05.261Z,63.02
2023-04-01T15:39:40.904Z,63.48
2023-04-01T15:42:26.271Z,62.76
2023-04-01T15:45:01.664Z,62.93
2023-04-01T15:47:45.161Z,63.07
2023-04-01T15:50:37.382Z,63.86
2023-04-01T15:53:30.046Z,63.50
2023-04-01T15:55:59.765Z,63.27
2023-04-01T15:58:46.600Z,63.58
2023-04-01T16:01:20.812Z,63.49
2023-04-01T16:03:54.785Z,63.30
